createdAt,value
2023-04-18T00:01:21.700Z,100137.41
2023-04-18T00:04:25.399Z,100130.84
2023-04-18T00:07:28.047Z,100129.22
2023-04-18T00:10:30.967Z,100135.59
2023-04-18T00:13:33.771Z,100133.97
2023-04-18T00:16:38.195Z,100143.84
2023-04-18T00:19:43.373Z,100144.69
2023-04-18T00:22:55.089Z,100138.50
2023-04-18T00:25:57.750Z,100137.69
2023-04-18T00:29:00.312Z,100139.53
2023-04-18T00:32:02.845Z,100142.22
2023-04-18T00:35:06.900Z,100138.94
2023-04-18T00:38:09.451Z,100143.25
2023-04-18T00:41:12.295Z,100144.28
2023-04-18T00:44:15.097Z,100142.66
2023-04-18T00:47:17.752Z,100142.25
2023-04-18T00:50:21.174Z,100146.41
2023-04-18T00:53:24.070Z,100147.03
2023-04-18T00:56:26.738Z,100142.13
2023-04-18T00:59:29.414Z,100136.53
2023-04-18T01:02:34.018Z,100142.91
2023-04-18T01:05:36.747Z,100134.50
2023-04-18T01:08:42.195Z,100141.94
2023-04-18T01:11:44.697Z,100141.94
2023-04-18T01:14:47.696Z,100135.97
2023-04-18T01:17:52.469Z,100146.06
2023-04-18T01:20:57.137Z,100144.00
2023-04-18T01:24:17.185Z,100140.50
2023-04-18T01:27:20.033Z,100148.31
2023-04-18T01:30:22.502Z,100141.72
2023-04-18T01:33:25.019Z,100138.81
2023-04-18T01:36:27.688Z,100139.66
2023-04-18T01:39:30.169Z,100139.88
2023-04-18T01:42:33.056Z,100136.78
2023-04-18T01:45:35.482Z,100140.72
2023-04-18T01:48:38.265Z,100140.94
2023-04-18T01:51:41.019Z,100134.56
2023-04-18T01:54:43.502Z,100137.66
2023-04-18T01:57:46.248Z,100137.66
2023-04-18T02:00:51.561Z,100141.19
2023-04-18T02:03:54.377Z,100135.00
2023-04-18T02:06:57.227Z,100144.22
2023-04-18T02:10:00.016Z,100146.09
2023-04-18T02:13:02.621Z,100137.25
2023-04-18T02:16:06.177Z,100141.97
2023-04-18T02:19:09.197Z,100149.41
2023-04-18T02:22:11.755Z,100149.78
2023-04-18T02:25:14.249Z,100147.72
2023-04-18T02:28:16.747Z,100149.34
2023-04-18T02:31:19.367Z,100151.81
2023-04-18T02:34:21.912Z,100145.41
2023-04-18T02:37:24.335Z,100144.41
2023-04-18T02:40:26.916Z,100149.31
2023-04-18T02:43:29.557Z,100143.13
2023-04-18T02:46:32.736Z,100142.34
2023-04-18T02:49:36.018Z,100143.34
2023-04-18T02:52:38.551Z,100144.00
2023-04-18T02:55:43.105Z,100135.75
2023-04-18T02:58:45.762Z,100146.25
2023-04-18T03:02:14.885Z,100146.06
2023-04-18T03:05:24.778Z,100143.38
2023-04-18T03:08:30.775Z,100148.38
2023-04-18T03:11:33.654Z,100151.84
2023-04-18T03:14:36.325Z,100164.22
2023-04-18T03:17:39.465Z,100155.59
2023-04-18T03:20:42.345Z,100158.25
2023-04-18T03:23:45.005Z,100166.28
2023-04-18T03:26:47.709Z,100166.28
2023-04-18T03:29:51.966Z,100173.06
2023-04-18T03:32:56.209Z,100170.38
2023-04-18T03:35:59.401Z,100169.59
2023-04-18T03:39:02.588Z,100170.38
2023-04-18T03:42:05.824Z,100168.16
2023-04-18T03:45:09.973Z,100168.16
2023-04-18T03:48:13.087Z,100167.34
2023-04-18T03:51:18.980Z,100170.81
2023-04-18T03:54:22.682Z,100174.13
2023-04-18T03:57:25.325Z,100173.91
2023-04-18T04:00:28.020Z,100173.91
2023-04-18T04:03:37.156Z,100177.41
2023-04-18T04:06:40.622Z,100179.03
2023-04-18T04:09:43.239Z,100181.72
2023-04-18T04:12:46.731Z,100186.03
2023-04-18T04:15:49.730Z,100184.78
2023-04-18T04:18:52.382Z,100193.25
2023-04-18T04:21:58.952Z,100195.09
2023-04-18T04:25:02.776Z,100197.56
2023-04-18T04:28:11.695Z,100201.88
2023-04-18T04:31:24.265Z,100200.44
2023-04-18T04:34:26.947Z,100203.09
2023-04-18T04:37:29.887Z,100197.53
2023-04-18T04:40:47.849Z,100196.50
2023-04-18T04:43:51.327Z,100204.75
2023-04-18T04:46:58.024Z,100216.25
2023-04-18T04:50:07.813Z,100212.53
2023-04-18T04:53:11.803Z,100210.69
2023-04-18T04:56:14.798Z,100220.34
2023-04-18T04:59:18.081Z,100224.22
2023-04-18T05:02:23.404Z,100225.06
2023-04-18T05:05:26.105Z,100217.41
2023-04-18T05:08:28.972Z,100228.09
2023-04-18T05:11:31.493Z,100227.03
2023-04-18T05:14:34.072Z,100225.56
2023-04-18T05:17:36.650Z,100232.81
2023-04-18T05:20:39.188Z,100231.09
2023-04-18T05:23:41.727Z,100232.69
2023-04-18T05:26:44.342Z,100237.41
2023-04-18T05:29:47.964Z,100234.06
2023-04-18T05:32:50.919Z,100245.84
2023-04-18T05:35:53.852Z,100246.19
2023-04-18T05:38:56.507Z,100240.59
2023-04-18T05:41:59.402Z,100238.06
2023-04-18T05:45:02.221Z,100245.38
2023-04-18T05:48:05.615Z,100248.19
2023-04-18T05:51:09.101Z,100243.63
2023-04-18T05:54:13.393Z,100240.94
2023-04-18T05:57:16.304Z,100241.94
2023-04-18T06:00:20.183Z,100246.63
2023-04-18T06:03:22.976Z,100253.81
2023-04-18T06:06:26.202Z,100250.44
2023-04-18T06:09:28.722Z,100257.69
2023-04-18T06:12:31.270Z,100256.81
2023-04-18T06:15:34.913Z,100255.09
2023-04-18T06:18:37.564Z,100263.94
2023-04-18T06:21:42.213Z,100265.34
2023-04-18T06:24:44.961Z,100266.69
2023-04-18T06:27:47.709Z,100265.88
2023-04-18T06:30:50.729Z,100268.09
2023-04-18T06:33:53.295Z,100268.97
2023-04-18T06:36:56.114Z,100268.22
2023-04-18T06:39:58.772Z,100267.22
2023-04-18T06:43:01.455Z,100264.91
2023-04-18T06:46:07.176Z,100271.88
2023-04-18T06:49:10.051Z,100269.53
2023-04-18T06:52:12.837Z,100271.47
2023-04-18T06:55:15.775Z,100274.75
2023-04-18T06:58:18.549Z,100279.66
2023-04-18T07:01:21.180Z,100274.16
2023-04-18T07:04:23.891Z,100281.38
2023-04-18T07:07:26.665Z,100281.44
2023-04-18T07:10:29.978Z,100280.75
2023-04-18T07:13:32.977Z,100274.56
2023-04-18T07:16:35.724Z,100281.34
2023-04-18T07:19:41.859Z,100276.09
2023-04-18T07:22:44.483Z,100282.06
2023-04-18T07:25:47.389Z,100286.28
2023-04-18T07:28:50.003Z,100292.72
2023-04-18T07:31:52.570Z,100291.91
2023-04-18T07:34:57.502Z,100294.34
2023-04-18T07:38:00.036Z,100291.91
2023-04-18T07:41:03.418Z,100300.78
2023-04-18T07:44:05.970Z,100293.06
2023-04-18T07:47:11.507Z,100301.03
2023-04-18T07:50:14.067Z,100299.97
2023-04-18T07:53:17.093Z,100305.59
2023-04-18T07:56:19.728Z,100312.50
2023-04-18T07:59:22.546Z,100310.63
2023-04-18T08:02:25.702Z,100314.28
2023-04-18T08:05:29.518Z,100313.00
2023-04-18T08:08:32.082Z,100319.78
2023-04-18T08:11:35.292Z,100313.28
2023-04-18T08:14:38.146Z,100320.16
2023-04-18T08:17:42.755Z,100324.59
2023-04-18T08:20:45.795Z,100332.44
2023-04-18T08:23:48.670Z,100317.50
2023-04-18T08:26:51.111Z,100316.41
2023-04-18T08:29:55.428Z,100320.66
2023-04-18T08:32:59.080Z,100322.78
2023-04-18T08:36:01.709Z,100322.72
2023-04-18T08:39:04.632Z,100320.75
2023-04-18T08:42:10.411Z,100327.78
2023-04-18T08:45:16.542Z,100322.19
2023-04-18T08:48:19.172Z,100325.88
2023-04-18T08:51:21.790Z,100326.31
2023-04-18T08:54:25.587Z,100321.75
2023-04-18T08:57:31.082Z,100326.63
2023-04-18T09:00:36.602Z,100322.47
2023-04-18T09:03:40.615Z,100326.53
2023-04-18T09:06:54.970Z,100320.44
2023-04-18T09:09:57.767Z,100323.50
2023-04-18T09:13:03.538Z,100311.28
2023-04-18T09:16:07.260Z,100325.47
2023-04-18T09:19:18.729Z,100324.34
2023-04-18T09:22:21.986Z,100311.38
2023-04-18T09:25:29.328Z,100317.50
2023-04-18T09:28:33.711Z,100320.16
2023-04-18T09:32:00.126Z,100320.06
2023-04-18T09:35:05.563Z,100320.78
2023-04-18T09:38:08.282Z,100321.09
2023-04-18T09:41:13.211Z,100319.47
2023-04-18T09:44:17.717Z,100316.81
2023-04-18T09:47:20.611Z,100324.41
2023-04-18T09:50:23.303Z,100323.03
2023-04-18T09:53:26.855Z,100311.75
2023-04-18T09:56:32.776Z,100312.41
2023-04-18T09:59:52.051Z,100314.84
2023-04-18T10:03:10.056Z,100307.91
2023-04-18T10:06:16.475Z,100303.38
2023-04-18T10:09:20.939Z,100310.63
2023-04-18T10:12:24.363Z,100314.44
2023-04-18T10:15:31.982Z,100314.78
2023-04-18T10:18:36.746Z,100312.97
2023-04-18T10:21:57.465Z,100320.63
2023-04-18T10:25:00.277Z,100312.59
2023-04-18T10:28:04.497Z,100310.72
2023-04-18T10:31:07.907Z,100317.19
2023-04-18T10:34:17.513Z,100305.31
2023-04-18T10:37:20.358Z,100302.88
2023-04-18T10:40:34.326Z,100309.09
2023-04-18T10:44:15.800Z,100309.31
2023-04-18T10:47:20.203Z,100303.56
2023-04-18T10:50:24.395Z,100302.91
2023-04-18T10:53:31.522Z,100309.78
2023-04-18T10:56:34.256Z,100301.31
2023-04-18T10:59:42.437Z,100301.34
2023-04-18T11:02:50.269Z,100301.53
2023-04-18T11:06:02.002Z,100297.75
2023-04-18T11:09:14.616Z,100296.75
2023-04-18T11:12:17.240Z,100303.94
2023-04-18T11:15:21.658Z,100306.47
2023-04-18T11:18:24.607Z,100292.31
2023-04-18T11:21:31.708Z,100299.19
2023-04-18T11:24:34.416Z,100298.69
2023-04-18T11:27:37.094Z,100302.97
2023-04-18T11:30:41.211Z,100303.63
2023-04-18T11:33:47.344Z,100298.88
2023-04-18T11:36:51.406Z,100304.75
2023-04-18T11:39:54.163Z,100293.28
2023-04-18T11:42:56.902Z,100289.88
2023-04-18T11:46:00.455Z,100295.66
2023-04-18T11:49:02.992Z,100291.25
2023-04-18T11:52:13.174Z,100288.84
2023-04-18T11:55:18.555Z,100300.25
2023-04-18T11:58:30.687Z,100280.69
2023-04-18T12:01:33.463Z,100282.31
2023-04-18T12:04:53.345Z,100283.69
2023-04-18T12:07:56.768Z,100286.69
2023-04-18T12:10:59.344Z,100277.69
2023-04-18T12:14:03.552Z,100289.88
2023-04-18T12:17:06.934Z,100292.00
2023-04-18T12:20:10.763Z,100295.22
2023-04-18T12:23:34.451Z,100295.63
2023-04-18T12:26:45.810Z,100294.97
2023-04-18T12:29:48.690Z,100295.06
2023-04-18T12:32:54.496Z,100295.41
2023-04-18T12:35:57.488Z,100299.22
2023-04-18T12:39:00.185Z,100286.19
2023-04-18T12:42:02.756Z,100282.03
2023-04-18T12:45:07.818Z,100289.16
2023-04-18T12:48:10.648Z,100284.16
2023-04-18T12:51:13.272Z,100284.47
2023-04-18T12:54:16.091Z,100270.78
2023-04-18T12:57:19.029Z,100271.31
2023-04-18T13:00:26.837Z,100273.00
2023-04-18T13:03:29.716Z,100272.81
2023-04-18T13:06:32.333Z,100271.06
2023-04-18T13:09:34.986Z,100271.94
2023-04-18T13:12:38.401Z,100274.88
2023-04-18T13:15:41.348Z,100280.28
2023-04-18T13:18:44.310Z,100283.06
2023-04-18T13:21:48.436Z,100281.44
2023-04-18T13:24:53.151Z,100279.41
2023-04-18T13:27:56.579Z,100277.16
2023-04-18T13:30:59.781Z,100280.03
2023-04-18T13:34:02.344Z,100278.91
2023-04-18T13:37:04.994Z,100276.97
2023-04-18T13:40:08.555Z,100277.72
2023-04-18T13:43:13.065Z,100279.44
2023-04-18T13:46:15.665Z,100284.28
2023-04-18T13:49:18.747Z,100284.09
2023-04-18T13:52:21.270Z,100286.66
2023-04-18T13:55:25.218Z,100279.81
2023-04-18T13:58:27.794Z,100284.78
2023-04-18T14:01:30.496Z,100291.53
2023-04-18T14:04:33.634Z,100291.72
2023-04-18T14:07:37.325Z,100283.84
2023-04-18T14:10:39.958Z,100280.94
2023-04-18T14:13:42.578Z,100272.09
2023-04-18T14:16:45.230Z,100280.41
2023-04-18T14:19:48.914Z,100267.94
2023-04-18T14:22:53.120Z,100271.00
2023-04-18T14:25:56.010Z,100265.94
2023-04-18T14:28:58.724Z,100269.06
2023-04-18T14:32:01.488Z,100266.19
2023-04-18T14:35:06.092Z,100265.00
2023-04-18T14:38:08.604Z,100268.34
2023-04-18T14:41:11.227Z,100261.69
2023-04-18T14:44:13.901Z,100269.38
2023-04-18T14:47:16.491Z,100257.16
2023-04-18T14:50:19.190Z,100264.19
2023-04-18T14:53:21.866Z,100264.22
2023-04-18T14:56:24.367Z,100265.94
2023-04-18T14:59:28.820Z,100258.63
2023-04-18T15:02:31.680Z,100251.69
2023-04-18T15:05:35.010Z,100257.91
2023-04-18T15:08:40.523Z,100261.66
2023-04-18T15:11:43.036Z,100259.63
2023-04-18T15:14:45.557Z,100264.16
2023-04-18T15:17:48.096Z,100253.34
2023-04-18T15:20:51.785Z,100253.75
2023-04-18T15:23:54.349Z,100265.75
2023-04-18T15:26:58.760Z,100273.53
2023-04-18T15:30:02.414Z,100257.88
2023-04-18T15:33:06.319Z,100257.69
2023-04-18T15:36:10.112Z,100266.47
2023-04-18T15:39:13.294Z,100263.06
2023-04-18T15:42:16.031Z,100269.03
2023-04-18T15:45:18.595Z,100259.75
2023-04-18T15:48:21.264Z,100257.50
2023-04-18T15:51:28.375Z,100263.06
2023-04-18T15:54:30.836Z,100264.22
2023-04-18T15:57:33.362Z,100260.47
2023-04-18T16:00:35.919Z,100259.13
2023-04-18T16:03:39.872Z,100259.81
2023-04-18T16:06:42.973Z,100262.09
2023-04-18T16:09:45.545Z,100263.34
2023-04-18T16:12:48.282Z,100268.19
2023-04-18T16:15:50.879Z,100267.53
2023-04-18T16:18:53.410Z,100273.19
2023-04-18T16:21:56.901Z,100280.97
2023-04-18T16:24:59.430Z,100277.44
2023-04-18T16:28:02.004Z,100288.47
2023-04-18T16:31:06.143Z,100285.84
2023-04-18T16:34:09.981Z,100283.97
2023-04-18T16:37:12.438Z,100288.38
2023-04-18T16:40:15.316Z,100293.53
2023-04-18T16:43:17.890Z,100281.72
2023-04-18T16:46:20.432Z,100288.59
2023-04-18T16:49:23.754Z,100286.34
2023-04-18T16:52:26.296Z,100281.47
2023-04-18T16:55:29.018Z,100286.59
2023-04-18T16:58:31.553Z,100294.66
2023-04-18T17:01:34.326Z,100284.28
2023-04-18T17:04:37.091Z,100295.69
2023-04-18T17:07:39.698Z,100290.66
2023-04-18T17:10:42.596Z,100295.59
2023-04-18T17:13:45.700Z,100298.72
2023-04-18T17:16:49.563Z,100296.38
2023-04-18T17:19:53.455Z,100292.16
2023-04-18T17:22:57.317Z,100302.66
2023-04-18T17:25:59.761Z,100303.16
2023-04-18T17:29:04.249Z,100302.91
2023-04-18T17:32:07.169Z,100314.31
2023-04-18T17:35:10.442Z,100307.44
2023-04-18T17:38:13.043Z,100310.41
2023-04-18T17:41:17.840Z,100312.31
2023-04-18T17:44:20.774Z,100319.28
2023-04-18T17:47:25.189Z,100318.25
2023-04-18T17:50:28.161Z,100318.59
2023-04-18T17:53:32.168Z,100322.19
2023-04-18T17:56:35.457Z,100323.06
2023-04-18T17:59:38.827Z,100319.16
2023-04-18T18:02:44.885Z,100323.41
2023-04-18T18:05:49.652Z,100328.66
2023-04-18T18:08:52.306Z,100326.31
2023-04-18T18:11:56.017Z,100334.97
2023-04-18T18:14:59.146Z,100334.75
2023-04-18T18:18:02.200Z,100337.78
2023-04-18T18:21:05.391Z,100335.09
2023-04-18T18:24:08.938Z,100348.41
2023-04-18T18:27:11.520Z,100345.25
2023-04-18T18:30:14.857Z,100349.81
2023-04-18T18:33:17.804Z,100350.72
2023-04-18T18:36:20.519Z,100354.91
2023-04-18T18:39:23.507Z,100358.88
2023-04-18T18:42:27.024Z,100362.59
2023-04-18T18:45:30.068Z,100362.50
2023-04-18T18:48:37.041Z,100371.31
2023-04-18T18:51:41.014Z,100376.72
2023-04-18T18:54:45.501Z,100380.78
2023-04-18T18:57:48.455Z,100383.69
2023-04-18T19:00:51.832Z,100379.31
2023-04-18T19:03:54.970Z,100390.41
2023-04-18T19:06:58.216Z,100395.81
2023-04-18T19:10:01.790Z,100398.09
2023-04-18T19:13:04.660Z,100394.72
2023-04-18T19:16:07.738Z,100404.22
2023-04-18T19:19:10.960Z,100397.56
2023-04-18T19:22:13.828Z,100411.84
2023-04-18T19:25:17.771Z,100404.44
2023-04-18T19:28:22.664Z,100407.34
2023-04-18T19:31:26.202Z,100412.16
2023-04-18T19:34:29.270Z,100413.91
2023-04-18T19:37:32.435Z,100415.47
2023-04-18T19:40:35.380Z,100419.69
2023-04-18T19:43:39.036Z,100421.63
2023-04-18T19:46:41.824Z,100418.31
2023-04-18T19:49:44.757Z,100419.75
2023-04-18T19:52:48.183Z,100418.00
2023-04-18T19:55:51.018Z,100422.06
2023-04-18T19:58:54.065Z,100422.34
2023-04-18T20:01:59.499Z,100424.56
2023-04-18T20:05:06.431Z,100419.19
2023-04-18T20:08:10.054Z,100419.19
2023-04-18T20:11:14.335Z,100415.47
2023-04-18T20:14:18.026Z,100412.88
2023-04-18T20:17:21.168Z,100410.34
2023-04-18T20:20:23.989Z,100414.47
2023-04-18T20:23:26.934Z,100414.72
2023-04-18T20:26:29.741Z,100415.78
2023-04-18T20:29:32.631Z,100417.56
2023-04-18T20:32:35.516Z,100422.13
2023-04-18T20:35:38.373Z,100425.63
2023-04-18T20:38:41.390Z,100430.06
2023-04-18T20:41:46.733Z,100429.16
2023-04-18T20:44:49.276Z,100428.81
2023-04-18T20:47:52.693Z,100432.50
2023-04-18T20:50:55.353Z,100431.94
2023-04-18T20:53:57.904Z,100431.13
2023-04-18T20:57:00.952Z,100427.22
2023-04-18T21:00:06.429Z,100430.00
2023-04-18T21:03:09.200Z,100431.47
2023-04-18T21:06:12.192Z,100423.34
2023-04-18T21:09:15.098Z,100422.34
2023-04-18T21:12:17.977Z,100421.38
2023-04-18T21:15:20.580Z,100418.31
2023-04-18T21:18:23.604Z,100421.44
2023-04-18T21:21:26.080Z,100423.31
2023-04-18T21:24:28.642Z,100423.31
2023-04-18T21:27:31.078Z,100419.81
2023-04-18T21:30:34.740Z,100419.22
2023-04-18T21:33:37.390Z,100418.81
2023-04-18T21:36:40.184Z,100410.63
2023-04-18T21:39:42.813Z,100415.16
2023-04-18T21:42:46.006Z,100411.81
2023-04-18T21:45:49.739Z,100412.19
2023-04-18T21:48:52.575Z,100410.31
2023-04-18T21:51:55.169Z,100402.41
2023-04-18T21:54:59.281Z,100397.03
2023-04-18T21:58:01.800Z,100402.19
2023-04-18T22:01:04.639Z,100397.88
2023-04-18T22:04:07.735Z,100394.59
2023-04-18T22:07:11.585Z,100394.75
2023-04-18T22:10:14.176Z,100391.28
2023-04-18T22:13:19.061Z,100387.34
2023-04-18T22:16:24.780Z,100387.41
2023-04-18T22:19:29.568Z,100388.81
2023-04-18T22:22:32.130Z,100381.31
2023-04-18T22:25:34.913Z,100382.50
2023-04-18T22:28:37.750Z,100387.06
2023-04-18T22:31:40.363Z,100371.53
2023-04-18T22:34:43.158Z,100380.88
2023-04-18T22:37:45.973Z,100369.28
2023-04-18T22:40:48.790Z,100370.56
2023-04-18T22:43:51.406Z,100368.56
2023-04-18T22:46:56.525Z,100369.78
2023-04-18T22:49:58.978Z,100362.97
2023-04-18T22:53:01.478Z,100359.81
2023-04-18T22:56:04.136Z,100355.28
2023-04-18T22:59:06.665Z,100351.38
2023-04-18T23:02:10.585Z,100351.59
2023-04-18T23:05:15.670Z,100352.44
2023-04-18T23:08:20.686Z,100348.31
2023-04-18T23:11:23.520Z,100345.03
2023-04-18T23:14:26.001Z,100339.75
2023-04-18T23:17:28.545Z,100333.81
2023-04-18T23:20:31.083Z,100329.94
2023-04-18T23:23:33.580Z,100331.47
2023-04-18T23:26:36.070Z,100327.09
2023-04-18T23:29:39.263Z,100328.38
2023-04-18T23:32:42.056Z,100315.63
2023-04-18T23:35:44.676Z,100313.97
2023-04-18T23:38:47.325Z,100311.94
2023-04-18T23:41:50.391Z,100309.88
2023-04-18T23:44:52.928Z,100300.19
2023-04-18T23:47:55.752Z,100296.72
2023-04-18T23:50:58.724Z,100291.38
2023-04-18T23:54:01.315Z,100299.06
2023-04-18T23:57:03.926Z,100294.53
